LLBG/TLV METAR and TAF weather

Enter ICAO airport designator
Station Type Date Time Source
LLBG METAR 2020/01/27 13:50 UTC NOAA

LLBG 271350Z 34008KT CAVOK 17/10 Q1021 NOSIG


Station Type Date Time Source
LLBG Decoded METAR 2020/01/27 13:50 UTC NOAA

Ben-Gurion International Airport, Israel (LLBG) 32-00N 034-54E 49M
Jan 27, 2020 - 08:50 AM EST / 2020.01.27 1350 UTC
Wind: from the NNW (340 degrees) at 9 MPH (8 KT):0
Visibility: greater than 7 mile(s):0
Temperature: 62 F (17 C)
Dew Point: 50 F (10 C)
Relative Humidity: 63%
Pressure (altimeter): 30.15 in. Hg (1021 hPa)
ob: LLBG 271350Z 34008KT CAVOK 17/10 Q1021 NOSIG
cycle: 14

Station Type Date Time Source
LLBG TAF 2020/01/27 12:12 UTC NOAA

TAF TAF LLBG 271108Z 2712/2812 34010KT CAVOK
BECMG 2715/2717 04005KT
BECMG 2719/2721 VRB03KT
BECMG 2802/2804 20005KT 8000 FEW012 PROB30 2804/2807 5000 BR SCT010
BECMG 2807/2809 28010KT 9999 BKN030 TX18/2712Z TN08/2804Z

Example: see airport list